Time;durP1;ratioP1;P1;durP2;ratioP2;P2;SDS_P1;SDS_P2;PMS_P1;PMS_P2;Temp;Humidity;BMP_temperature;BMP_pressure;BME280_temperature;BME280_humidity;BME280_pressure;Samples;Min_cycle;Max_cycle;Signal;HPM_P1;HPM_P2
2021/08/11 00:02:19;;;;;;;6.60;5.80;;;18.30;99.90;;;;;;4986265;28;20184;-79
2021/08/11 00:04:44;;;;;;;6.80;6.27;;;18.30;99.90;;;;;;4984293;28;20181;-78
2021/08/11 00:07:10;;;;;;;6.93;6.30;;;18.10;99.90;;;;;;4985494;28;20207;-78
2021/08/11 00:09:35;;;;;;;7.43;6.70;;;18.00;99.90;;;;;;4985992;28;20599;-78
2021/08/11 00:12:02;;;;;;;9.47;6.33;;;18.00;99.90;;;;;;4984734;28;20232;-79
2021/08/11 00:14:27;;;;;;;7.07;6.47;;;18.00;99.90;;;;;;4998263;28;20235;-78
2021/08/11 00:16:53;;;;;;;7.37;6.77;;;17.90;99.90;;;;;;4979984;28;20211;-79
2021/08/11 00:19:19;;;;;;;7.63;7.00;;;17.90;99.90;;;;;;4985158;28;20180;-79
2021/08/11 00:21:44;;;;;;;7.47;6.70;;;17.80;99.90;;;;;;4985992;28;20176;-79
2021/08/11 00:24:10;;;;;;;7.50;6.80;;;17.80;99.90;;;;;;4986714;28;20187;-78
2021/08/11 00:26:37;;;;;;;7.67;6.97;;;17.80;99.90;;;;;;4985554;28;20288;-79
2021/08/11 00:29:03;;;;;;;7.80;7.10;;;17.80;99.90;;;;;;4983144;28;20287;-78
2021/08/11 00:31:30;;;;;;;8.27;7.47;;;17.80;99.90;;;;;;4983741;28;20204;-78
2021/08/11 00:33:55;;;;;;;7.47;6.77;;;17.70;99.90;;;;;;4985141;28;20714;-78
2021/08/11 00:36:21;;;;;;;7.40;6.77;;;17.70;99.90;;;;;;4985023;28;20184;-78
2021/08/11 00:38:46;;;;;;;7.10;6.40;;;17.70;99.90;;;;;;4984851;28;20185;-78
2021/08/11 00:41:14;;;;;;;7.80;7.10;;;17.60;99.90;;;;;;4985019;28;20176;-78
2021/08/11 00:43:39;;;;;;;7.63;6.93;;;17.60;99.90;;;;;;4983595;28;20188;-78
2021/08/11 00:46:10;;;;;;;7.10;6.40;;;17.60;99.90;;;;;;4983779;28;20181;-78
2021/08/11 00:48:37;;;;;;;8.57;7.17;;;17.60;99.90;;;;;;4983338;28;20200;-78
2021/08/11 00:51:04;;;;;;;8.37;6.23;;;17.60;99.90;;;;;;4983565;28;20188;-79
2021/08/11 00:53:32;;;;;;;7.30;6.63;;;17.60;99.90;;;;;;4984737;28;20183;-78
2021/08/11 00:55:59;;;;;;;7.50;6.40;;;17.60;99.90;;;;;;4985312;28;20188;-78
2021/08/11 00:58:26;;;;;;;6.83;6.23;;;17.50;99.90;;;;;;4984125;28;20255;-78
2021/08/11 01:00:54;;;;;;;6.80;6.27;;;17.50;99.90;;;;;;4984735;28;20548;-79
2021/08/11 01:03:21;;;;;;;6.93;6.33;;;17.50;99.90;;;;;;4984967;28;20647;-78
2021/08/11 01:05:49;;;;;;;7.10;6.33;;;17.50;99.90;;;;;;4985223;28;20204;-79
2021/08/11 01:08:17;;;;;;;6.80;6.20;;;17.40;99.90;;;;;;4985302;28;20234;-77
2021/08/11 01:10:46;;;;;;;8.00;6.70;;;17.40;99.90;;;;;;4984857;28;20199;-78
2021/08/11 01:13:13;;;;;;;7.20;6.60;;;17.30;99.90;;;;;;4999243;28;20232;-78
2021/08/11 01:15:39;;;;;;;7.57;6.87;;;17.20;99.90;;;;;;4971898;28;20184;-78
2021/08/11 01:18:05;;;;;;;10.10;7.30;;;17.20;99.90;;;;;;4982927;28;20193;-79
2021/08/11 01:20:35;;;;;;;7.33;6.73;;;17.20;99.90;;;;;;4983914;28;20180;-78
2021/08/11 01:23:07;;;;;;;8.17;6.43;;;17.20;99.90;;;;;;4984507;28;20681;-78
2021/08/11 01:25:40;;;;;;;7.13;6.53;;;17.20;99.90;;;;;;4984450;28;20181;-78
2021/08/11 01:28:21;;;;;;;6.90;6.30;;;17.20;99.90;;;;;;4981904;28;20208;-78
2021/08/11 01:31:03;;;;;;;6.90;6.30;;;17.20;99.90;;;;;;4983740;28;20212;-78
2021/08/11 01:33:57;;;;;;;9.57;6.57;;;17.00;99.90;;;;;;4984313;28;20184;-79
2021/08/11 01:36:43;;;;;;;8.10;6.80;;;17.10;99.90;;;;;;4984382;28;20208;-78
2021/08/11 01:39:30;;;;;;;7.97;7.20;;;17.10;99.90;;;;;;4982626;28;20187;-79
2021/08/11 01:42:09;;;;;;;7.67;6.57;;;17.00;99.90;;;;;;4996025;28;20192;-78
2021/08/11 01:44:46;;;;;;;7.57;6.87;;;16.90;99.90;;;;;;4970167;28;20244;-79
2021/08/11 01:47:18;;;;;;;7.23;6.63;;;16.90;99.90;;;;;;4979386;28;20565;-79
2021/08/11 01:49:45;;;;;;;7.67;6.90;;;16.80;99.90;;;;;;4991976;28;20176;-79
2021/08/11 01:52:13;;;;;;;7.80;6.93;;;16.80;99.90;;;;;;4981276;28;20255;-78
2021/08/11 01:54:41;;;;;;;11.57;7.00;;;16.80;99.90;;;;;;4981251;28;20195;-78
2021/08/11 01:57:09;;;;;;;7.93;7.23;;;16.80;99.90;;;;;;4982510;28;20255;-78
2021/08/11 01:59:37;;;;;;;8.43;7.17;;;16.80;99.90;;;;;;4982564;28;20183;-78
2021/08/11 02:02:03;;;;;;;8.53;7.47;;;16.80;99.90;;;;;;4981458;28;20642;-78
2021/08/11 02:04:30;;;;;;;8.40;7.70;;;16.70;99.90;;;;;;4981818;28;20224;-78
2021/08/11 02:06:56;;;;;;;7.60;6.90;;;16.70;99.90;;;;;;4983520;28;20214;-78
2021/08/11 02:09:22;;;;;;;7.70;7.00;;;16.70;99.90;;;;;;4981063;28;20335;-79
2021/08/11 02:11:48;;;;;;;7.80;7.10;;;16.60;99.90;;;;;;4983120;28;20171;-78
2021/08/11 02:14:15;;;;;;;10.80;7.10;;;16.60;99.90;;;;;;4982822;28;20219;-78
2021/08/11 02:16:41;;;;;;;7.67;7.03;;;16.70;99.90;;;;;;4980517;28;20202;-78
2021/08/11 02:19:09;;;;;;;8.77;7.97;;;16.70;99.90;;;;;;4973953;28;20186;-78
2021/08/11 02:21:36;;;;;;;8.37;7.67;;;16.70;99.90;;;;;;4982457;28;20180;-78
2021/08/11 02:24:03;;;;;;;8.23;7.43;;;16.70;99.90;;;;;;4983120;28;20184;-78
2021/08/11 02:26:52;;;;;;;7.37;6.77;;;16.70;99.90;;;;;;4981515;28;20187;-78
2021/08/11 02:29:42;;;;;;;8.27;7.47;;;16.60;99.90;;;;;;4994873;28;20212;-78
2021/08/11 02:32:21;;;;;;;7.13;6.57;;;16.60;99.90;;;;;;4980312;28;20203;-79
2021/08/11 02:35:31;;;;;;;7.87;7.17;;;16.60;99.90;;;;;;4982025;28;20184;-78
2021/08/11 02:38:04;;;;;;;7.40;6.70;;;16.70;99.90;;;;;;4971350;23;20348;-77
2021/08/11 02:40:33;;;;;;;7.70;7.00;;;16.70;99.90;;;;;;4973251;28;20235;-76
2021/08/11 02:43:12;;;;;;;7.97;7.17;;;16.80;99.90;;;;;;4974776;28;20615;-77
2021/08/11 02:45:40;;;;;;;7.83;7.13;;;16.80;99.90;;;;;;4974624;28;20239;-77
2021/08/11 02:48:09;;;;;;;7.67;6.80;;;16.80;99.90;;;;;;4985014;28;20206;-77
2021/08/11 02:50:35;;;;;;;7.93;7.23;;;16.80;99.90;;;;;;4994062;28;20183;-77
2021/08/11 02:53:02;;;;;;;7.20;6.60;;;16.70;99.90;;;;;;4994321;28;20260;-76
2021/08/11 02:55:29;;;;;;;7.87;7.17;;;16.70;99.90;;;;;;4994381;28;20777;-76
2021/08/11 02:57:55;;;;;;;7.83;7.10;;;16.70;99.90;;;;;;4994040;28;20578;-77
2021/08/11 03:00:21;;;;;;;7.40;6.80;;;16.70;99.90;;;;;;4994061;28;20366;-77
2021/08/11 03:02:47;;;;;;;8.33;7.37;;;16.60;99.90;;;;;;4992677;28;20180;-77
2021/08/11 03:05:13;;;;;;;7.97;7.07;;;16.60;99.90;;;;;;4992672;28;20226;-76
2021/08/11 03:07:40;;;;;;;8.23;7.40;;;16.60;99.90;;;;;;4993775;28;20232;-77
2021/08/11 03:10:06;;;;;;;8.03;7.33;;;16.60;99.90;;;;;;4992617;28;20176;-77
2021/08/11 03:12:32;;;;;;;7.83;7.13;;;16.60;99.90;;;;;;4994269;28;20195;-77
2021/08/11 03:14:58;;;;;;;7.80;7.10;;;16.60;99.90;;;;;;4993754;28;20521;-76
2021/08/11 03:17:25;;;;;;;7.07;6.47;;;16.70;99.90;;;;;;4992632;28;20282;-75
2021/08/11 03:19:50;;;;;;;7.37;6.77;;;16.70;99.90;;;;;;4993978;28;20180;-77
2021/08/11 03:22:16;;;;;;;7.27;6.67;;;16.60;99.90;;;;;;4992608;28;20179;-76
2021/08/11 03:24:42;;;;;;;8.07;7.00;;;16.50;99.90;;;;;;4993609;28;20182;-77
2021/08/11 03:27:07;;;;;;;7.23;6.53;;;16.50;99.90;;;;;;4993803;28;20195;-77
2021/08/11 03:29:33;;;;;;;7.93;7.23;;;16.60;99.90;;;;;;4993528;28;20210;-77
2021/08/11 03:31:59;;;;;;;7.80;7.10;;;16.60;99.90;;;;;;4993593;28;20226;-77
2021/08/11 03:34:25;;;;;;;8.70;7.03;;;16.60;99.90;;;;;;4992324;28;20713;-76
2021/08/11 03:36:51;;;;;;;8.00;7.30;;;16.60;99.90;;;;;;4992326;28;20179;-76
2021/08/11 03:39:16;;;;;;;7.70;7.00;;;16.50;99.90;;;;;;4993686;28;20238;-77
2021/08/11 03:41:42;;;;;;;8.17;7.33;;;16.50;99.90;;;;;;4992404;28;20266;-77
2021/08/11 03:44:08;;;;;;;7.07;6.47;;;16.50;99.90;;;;;;4992172;28;20666;-76
2021/08/11 03:46:33;;;;;;;7.23;6.63;;;16.50;99.90;;;;;;4993718;28;20175;-77
2021/08/11 03:48:59;;;;;;;7.07;6.47;;;16.40;99.90;;;;;;4993262;28;20199;-76
2021/08/11 03:51:25;;;;;;;17.37;7.03;;;16.40;99.90;;;;;;4996356;28;20183;-77
2021/08/11 03:53:50;;;;;;;7.00;6.40;;;16.40;99.90;;;;;;4997065;28;20187;-77
2021/08/11 03:56:16;;;;;;;7.83;7.03;;;16.40;99.90;;;;;;4996945;28;20592;-77
2021/08/11 03:58:42;;;;;;;7.40;6.77;;;16.50;99.90;;;;;;4995625;28;20310;-77
2021/08/11 04:01:07;;;;;;;7.50;6.47;;;16.50;99.90;;;;;;4993079;28;20530;-80
2021/08/11 04:03:33;;;;;;;7.67;6.87;;;16.50;99.90;;;;;;4986411;28;20180;-77
2021/08/11 04:05:59;;;;;;;6.90;6.30;;;16.50;99.90;;;;;;4986966;28;20406;-76
2021/08/11 04:08:24;;;;;;;7.30;6.60;;;16.40;99.90;;;;;;4977137;28;20209;-77
2021/08/11 04:10:51;;;;;;;9.17;6.60;;;16.30;99.90;;;;;;4994276;28;20178;-77
2021/08/11 04:13:18;;;;;;;7.20;6.50;;;16.30;99.90;;;;;;4996794;28;20179;-77
2021/08/11 04:15:45;;;;;;;7.30;6.73;;;16.30;99.90;;;;;;4995126;28;20246;-78
2021/08/11 04:18:11;;;;;;;7.03;6.40;;;16.20;99.90;;;;;;4996509;28;20195;-77
2021/08/11 04:20:38;;;;;;;7.40;6.80;;;16.20;99.90;;;;;;4996599;28;20676;-77
2021/08/11 04:23:05;;;;;;;7.20;6.50;;;16.20;99.90;;;;;;4996422;28;20206;-77
2021/08/11 04:25:31;;;;;;;7.70;6.87;;;16.20;99.90;;;;;;4996304;28;20186;-77
2021/08/11 04:27:57;;;;;;;7.60;6.90;;;16.20;99.90;;;;;;4993230;28;20262;-76
2021/08/11 04:30:22;;;;;;;7.37;6.67;;;16.20;99.90;;;;;;4994070;28;20261;-77
2021/08/11 04:32:48;;;;;;;7.90;7.17;;;16.20;99.90;;;;;;4996090;28;20267;-77
2021/08/11 04:35:14;;;;;;;7.53;6.80;;;16.20;99.90;;;;;;4997178;28;20180;-76
2021/08/11 04:37:42;;;;;;;7.93;7.33;;;16.20;99.90;;;;;;4995941;28;20262;-76
2021/08/11 04:40:09;;;;;;;9.97;6.87;;;16.20;99.90;;;;;;4996532;28;20180;-76
2021/08/11 04:42:34;;;;;;;9.63;8.73;;;16.20;99.90;;;;;;4996661;28;20173;-77
2021/08/11 04:45:01;;;;;;;14.63;11.70;;;16.20;99.90;;;;;;4996546;28;20201;-77
2021/08/11 04:47:27;;;;;;;20.60;12.60;;;16.20;99.90;;;;;;4995959;28;20202;-77
2021/08/11 04:49:53;;;;;;;16.30;12.03;;;16.30;99.90;;;;;;4996140;28;20180;-77
2021/08/11 04:52:19;;;;;;;6.70;6.17;;;16.30;99.90;;;;;;4996100;28;20180;-77
2021/08/11 04:54:45;;;;;;;7.10;6.40;;;16.30;99.90;;;;;;4996098;28;20175;-76
2021/08/11 04:57:11;;;;;;;7.60;6.80;;;16.40;99.90;;;;;;4995955;28;20545;-77
2021/08/11 04:59:36;;;;;;;7.40;6.70;;;16.40;99.90;;;;;;4994763;28;20250;-77
2021/08/11 05:02:02;;;;;;;7.33;6.63;;;16.30;99.90;;;;;;4994598;28;20207;-76
2021/08/11 05:04:28;;;;;;;7.20;6.50;;;16.30;99.90;;;;;;4994614;28;20217;-76
2021/08/11 05:06:54;;;;;;;7.23;6.50;;;16.30;99.90;;;;;;4996369;28;20234;-76
2021/08/11 05:09:19;;;;;;;7.73;7.03;;;16.20;99.90;;;;;;4996057;28;20627;-77
2021/08/11 05:11:45;;;;;;;6.83;6.23;;;16.40;99.90;;;;;;4996111;28;20167;-76
2021/08/11 05:14:11;;;;;;;7.23;6.50;;;16.40;99.90;;;;;;4994597;28;20643;-76
2021/08/11 05:16:36;;;;;;;8.10;6.63;;;16.40;99.90;;;;;;4994690;28;20182;-77
2021/08/11 05:19:02;;;;;;;8.73;6.83;;;16.40;99.90;;;;;;4995628;28;20195;-76
2021/08/11 05:21:28;;;;;;;8.10;6.50;;;16.50;99.90;;;;;;4994571;28;20600;-77
2021/08/11 05:23:54;;;;;;;8.07;7.13;;;16.50;99.90;;;;;;4994279;28;20187;-76
2021/08/11 05:26:20;;;;;;;7.77;6.73;;;16.60;99.90;;;;;;4995574;28;20674;-77
2021/08/11 05:28:46;;;;;;;7.27;6.60;;;16.60;99.90;;;;;;4995393;28;20206;-76
2021/08/11 05:31:13;;;;;;;7.47;6.80;;;16.70;99.90;;;;;;4994607;28;20183;-76
2021/08/11 05:33:39;;;;;;;10.03;6.97;;;16.70;99.90;;;;;;4994417;28;20196;-76
2021/08/11 05:36:04;;;;;;;7.20;6.60;;;16.80;99.90;;;;;;4995544;28;20263;-77
2021/08/11 05:38:31;;;;;;;7.90;6.53;;;16.80;99.90;;;;;;4993865;28;20226;-77
2021/08/11 05:40:57;;;;;;;6.97;6.40;;;16.90;99.90;;;;;;4995567;28;20582;-76
2021/08/11 05:43:22;;;;;;;8.90;6.87;;;16.80;99.90;;;;;;4995751;28;20190;-76
2021/08/11 05:45:48;;;;;;;7.27;6.57;;;16.80;99.90;;;;;;4995359;28;20180;-77
2021/08/11 05:48:14;;;;;;;8.07;6.70;;;16.90;99.90;;;;;;4995354;28;20203;-77
2021/08/11 05:50:39;;;;;;;7.40;6.63;;;16.80;99.90;;;;;;4995482;28;20181;-76
2021/08/11 05:53:05;;;;;;;7.27;6.20;;;16.90;99.90;;;;;;4994224;28;20175;-77
2021/08/11 05:55:30;;;;;;;7.10;6.20;;;17.00;99.90;;;;;;4993720;28;20210;-77
2021/08/11 05:57:56;;;;;;;7.23;6.50;;;17.00;99.90;;;;;;4994888;28;20288;-76
2021/08/11 06:00:22;;;;;;;7.70;5.83;;;17.20;99.90;;;;;;4994823;28;20191;-76
2021/08/11 06:02:47;;;;;;;6.40;5.90;;;17.30;99.90;;;;;;4993130;28;20707;-78
2021/08/11 06:05:13;;;;;;;11.50;6.67;;;17.30;99.90;;;;;;4994160;28;20261;-78
2021/08/11 06:07:39;;;;;;;8.27;6.20;;;17.30;99.90;;;;;;4992436;28;20223;-77
2021/08/11 06:10:06;;;;;;;9.60;6.37;;;17.40;99.90;;;;;;4992602;28;20186;-77
2021/08/11 06:12:32;;;;;;;7.63;5.70;;;17.40;99.90;;;;;;4991479;28;20226;-77
2021/08/11 06:14:57;;;;;;;7.43;6.13;;;17.60;99.90;;;;;;4994098;28;20267;-78
2021/08/11 06:17:23;;;;;;;6.23;5.63;;;17.70;99.90;;;;;;4985038;28;20572;-78
2021/08/11 06:19:49;;;;;;;8.30;5.27;;;17.70;99.90;;;;;;4991406;28;20179;-77
2021/08/11 06:22:16;;;;;;;6.90;6.20;;;17.80;99.90;;;;;;4996778;28;20182;-78
2021/08/11 06:24:42;;;;;;;7.90;5.13;;;17.80;99.90;;;;;;4994664;28;20588;-78
2021/08/11 06:27:08;;;;;;;7.27;5.20;;;17.90;99.90;;;;;;4996784;28;20200;-77
2021/08/11 06:29:34;;;;;;;8.30;6.00;;;17.90;99.90;;;;;;4987923;28;20204;-79
2021/08/11 06:32:01;;;;;;;7.43;5.27;;;18.00;99.90;;;;;;4996003;28;20570;-78
2021/08/11 06:34:27;;;;;;;5.60;5.10;;;18.00;99.90;;;;;;4997696;28;20167;-78
2021/08/11 06:36:53;;;;;;;5.60;5.10;;;18.10;99.90;;;;;;4996721;28;20234;-78
2021/08/11 06:39:19;;;;;;;6.10;5.60;;;18.10;99.90;;;;;;4996538;28;20268;-78
2021/08/11 06:41:45;;;;;;;5.37;4.87;;;18.10;99.90;;;;;;4996567;28;20188;-78
2021/08/11 06:44:11;;;;;;;7.10;5.50;;;18.10;99.90;;;;;;4996693;28;20570;-77
2021/08/11 06:46:36;;;;;;;5.13;4.73;;;18.20;99.90;;;;;;4996240;28;20163;-78
2021/08/11 06:49:02;;;;;;;5.53;5.03;;;18.20;99.90;;;;;;4995931;28;20242;-77
2021/08/11 06:51:28;;;;;;;7.83;5.63;;;18.30;99.90;;;;;;4988675;28;20190;-78
2021/08/11 06:53:53;;;;;;;8.30;5.13;;;18.50;99.90;;;;;;4995434;28;20179;-78
2021/08/11 06:56:19;;;;;;;7.23;5.03;;;18.50;99.90;;;;;;4995602;28;20259;-78
2021/08/11 06:58:44;;;;;;;6.07;5.13;;;18.50;99.90;;;;;;4994280;28;20299;-78
2021/08/11 07:01:10;;;;;;;5.83;5.23;;;18.50;99.90;;;;;;4993918;28;20183;-78
2021/08/11 07:03:36;;;;;;;7.00;6.30;;;18.50;99.90;;;;;;4995599;28;20669;-78
2021/08/11 07:06:02;;;;;;;7.23;6.03;;;18.70;99.90;;;;;;4995165;28;20179;-78
2021/08/11 07:08:27;;;;;;;9.10;6.80;;;18.80;99.90;;;;;;4995579;28;20191;-78
2021/08/11 07:10:53;;;;;;;6.90;5.97;;;18.80;99.90;;;;;;4995460;28;20250;-78
2021/08/11 07:13:20;;;;;;;7.33;5.40;;;18.90;99.90;;;;;;4993900;28;20186;-79
2021/08/11 07:15:46;;;;;;;9.67;5.70;;;19.00;99.90;;;;;;4994662;28;20612;-78
2021/08/11 07:18:19;;;;;;;6.93;6.23;;;19.00;99.90;;;;;;4994432;28;20251;-78
2021/08/11 07:20:46;;;;;;;7.10;6.07;;;19.00;99.90;;;;;;4998099;28;20191;-78
2021/08/11 07:23:12;;;;;;;6.83;5.50;;;19.20;99.90;;;;;;4997916;28;20187;-78
2021/08/11 07:25:37;;;;;;;6.23;5.63;;;19.20;99.90;;;;;;5000546;28;20182;-79
2021/08/11 07:28:04;;;;;;;7.97;5.43;;;19.20;99.90;;;;;;5001549;28;20215;-77
2021/08/11 07:30:29;;;;;;;5.87;5.37;;;19.30;99.90;;;;;;5001328;28;20226;-78
2021/08/11 07:32:55;;;;;;;5.93;5.43;;;19.40;99.90;;;;;;5001646;28;20211;-78
2021/08/11 07:35:21;;;;;;;8.07;5.60;;;19.50;99.90;;;;;;5002081;28;20246;-78
2021/08/11 07:37:55;;;;;;;12.63;6.03;;;19.50;99.90;;;;;;4997506;28;20689;-78
2021/08/11 07:40:23;;;;;;;6.43;5.80;;;19.50;99.90;;;;;;4999817;28;20235;-78
2021/08/11 07:42:50;;;;;;;7.13;5.97;;;19.70;99.90;;;;;;5002054;28;20176;-79
2021/08/11 07:45:17;;;;;;;9.10;6.30;;;19.80;99.90;;;;;;4992967;28;20717;-79
2021/08/11 07:47:47;;;;;;;6.37;5.77;;;19.90;99.90;;;;;;4997186;28;20220;-78
2021/08/11 07:50:14;;;;;;;9.23;5.80;;;19.90;99.90;;;;;;4996969;28;20184;-79
2021/08/11 07:52:40;;;;;;;6.17;5.53;;;20.00;99.90;;;;;;5000119;28;20168;-78
2021/08/11 07:55:06;;;;;;;6.20;5.60;;;20.10;99.90;;;;;;5001276;28;20539;-78
2021/08/11 07:57:32;;;;;;;12.93;6.37;;;20.10;99.90;;;;;;5001163;28;20195;-77
2021/08/11 07:59:58;;;;;;;8.57;6.13;;;20.00;99.90;;;;;;5001769;28;20175;-78
2021/08/11 08:02:24;;;;;;;11.60;6.00;;;20.10;99.90;;;;;;5001673;28;20183;-78
2021/08/11 08:04:49;;;;;;;9.80;6.47;;;20.20;99.90;;;;;;4998234;28;20661;-78
2021/08/11 08:07:15;;;;;;;8.77;6.23;;;20.40;99.90;;;;;;4999462;28;20203;-78
2021/08/11 08:09:41;;;;;;;6.90;5.70;;;20.40;99.90;;;;;;5002706;28;20231;-78
2021/08/11 08:12:07;;;;;;;6.67;5.70;;;20.40;99.90;;;;;;5002297;28;20191;-78
2021/08/11 08:14:32;;;;;;;8.77;6.97;;;20.50;99.90;;;;;;4995261;28;20316;-78
2021/08/11 08:16:58;;;;;;;8.90;6.47;;;20.60;99.90;;;;;;4982797;28;20176;-78
2021/08/11 08:19:24;;;;;;;6.23;5.70;;;20.70;99.90;;;;;;5000139;28;20171;-78
2021/08/11 08:21:50;;;;;;;7.57;6.87;;;20.70;99.90;;;;;;5001299;28;20187;-78
2021/08/11 08:24:16;;;;;;;7.47;6.60;;;20.70;99.90;;;;;;5001226;28;20184;-78
2021/08/11 08:26:42;;;;;;;9.80;6.90;;;20.70;99.90;;;;;;5001362;28;20179;-78
2021/08/11 08:29:08;;;;;;;6.30;5.70;;;20.70;99.90;;;;;;5000471;28;20215;-78
2021/08/11 08:31:34;;;;;;;5.97;5.47;;;20.80;99.90;;;;;;5002568;28;20176;-79
2021/08/11 08:34:00;;;;;;;7.13;6.50;;;20.90;99.90;;;;;;5001831;28;20659;-79
2021/08/11 08:36:25;;;;;;;7.57;6.07;;;21.00;99.90;;;;;;5000694;28;20176;-79
2021/08/11 08:38:51;;;;;;;6.70;6.07;;;21.20;99.90;;;;;;5013946;23;20604;-79
2021/08/11 08:41:17;;;;;;;8.10;5.37;;;21.30;99.90;;;;;;4989735;28;20187;-79
2021/08/11 08:43:43;;;;;;;6.97;5.80;;;21.50;99.90;;;;;;4979988;28;20267;-79
2021/08/11 08:46:09;;;;;;;5.57;5.07;;;21.50;99.90;;;;;;4978683;28;20214;-79
2021/08/11 08:48:42;;;;;;;7.77;6.70;;;21.60;99.90;;;;;;4979981;28;20663;-79
2021/08/11 08:51:12;;;;;;;7.93;5.80;;;21.80;99.90;;;;;;4979242;28;20188;-79
2021/08/11 08:53:40;;;;;;;6.93;6.13;;;21.90;99.90;;;;;;4979432;28;20176;-78
2021/08/11 08:56:06;;;;;;;6.90;5.77;;;21.90;99.90;;;;;;4979410;28;20215;-79
2021/08/11 08:58:32;;;;;;;8.23;5.60;;;21.90;99.90;;;;;;4991133;28;20206;-79
2021/08/11 09:00:58;;;;;;;7.30;6.30;;;22.00;99.90;;;;;;4980137;28;20199;-79
2021/08/11 09:03:24;;;;;;;11.33;5.77;;;22.20;99.90;;;;;;4979331;28;20184;-79
2021/08/11 09:05:49;;;;;;;6.47;5.87;;;22.30;99.90;;;;;;4979229;28;20187;-79
2021/08/11 09:08:15;;;;;;;6.70;5.97;;;22.40;99.90;;;;;;4978268;28;20750;-78
2021/08/11 09:10:41;;;;;;;8.80;5.30;;;22.40;99.90;;;;;;4976864;28;20659;-78
2021/08/11 09:13:33;;;;;;;9.83;5.17;;;22.40;99.90;;;;;;4975447;28;20674;-78
2021/08/11 09:16:05;;;;;;;5.73;5.13;;;22.50;99.90;;;;;;4973320;28;20614;-77
2021/08/11 09:18:31;;;;;;;6.63;5.43;;;22.50;99.90;;;;;;4974617;28;20192;-78
2021/08/11 09:21:01;;;;;;;5.80;5.30;;;22.60;99.90;;;;;;4976532;28;20707;-78
2021/08/11 09:23:40;;;;;;;6.63;5.93;;;22.70;99.90;;;;;;4977621;28;20172;-78
2021/08/11 09:26:08;;;;;;;6.77;5.47;;;22.90;99.90;;;;;;4992089;28;20168;-78
2021/08/11 09:28:36;;;;;;;6.10;5.50;;;23.10;99.90;;;;;;4983590;28;20212;-76
2021/08/11 09:31:26;;;;;;;5.70;5.20;;;23.20;99.90;;;;;;4985956;28;20168;-79
2021/08/11 09:33:59;;;;;;;7.20;5.67;;;23.50;99.90;;;;;;4977522;28;20212;-77
2021/08/11 09:36:26;;;;;;;5.80;5.20;;;23.50;99.90;;;;;;4976968;28;20627;-79
2021/08/11 09:39:05;;;;;;;5.80;4.90;;;23.60;99.90;;;;;;4941984;28;1128737;-77
2021/08/11 09:41:32;;;;;;;5.73;5.03;;;23.70;99.90;;;;;;4978310;28;20207;-78
2021/08/11 09:44:10;;;;;;;5.43;5.00;;;23.70;99.90;;;;;;4979341;28;20271;-78
2021/08/11 09:46:40;;;;;;;5.67;5.17;;;23.80;99.90;;;;;;4979481;28;20184;-78
2021/08/11 09:49:18;;;;;;;5.73;5.33;;;23.80;99.90;;;;;;4980003;28;20269;-77
2021/08/11 09:51:53;;;;;;;6.00;5.37;;;23.90;99.90;;;;;;4981736;28;20183;-77
2021/08/11 09:54:19;;;;;;;6.43;5.47;;;24.00;99.90;;;;;;4995584;28;20172;-78
2021/08/11 09:56:45;;;;;;;5.70;5.20;;;24.10;99.90;;;;;;4977709;28;20176;-77
2021/08/11 09:59:11;;;;;;;5.67;4.97;;;24.20;99.90;;;;;;4981189;28;20207;-79
2021/08/11 10:01:36;;;;;;;6.27;5.73;;;24.30;99.90;;;;;;4989609;28;20222;-78
2021/08/11 10:04:06;;;;;;;5.90;5.30;;;24.40;99.90;;;;;;4983295;28;20180;-79
2021/08/11 10:06:33;;;;;;;8.23;4.50;;;24.50;99.90;;;;;;4985558;28;20180;-79
2021/08/11 10:09:23;;;;;;;5.23;4.83;;;24.40;99.90;;;;;;4995363;28;20207;-79
2021/08/11 10:11:57;;;;;;;5.63;5.10;;;24.50;99.90;;;;;;4979893;28;20180;-79
2021/08/11 10:14:34;;;;;;;5.60;5.07;;;24.60;99.90;;;;;;4983135;28;20165;-79
2021/08/11 10:17:00;;;;;;;6.73;5.13;;;24.60;99.90;;;;;;4988072;28;20176;-78
2021/08/11 10:19:31;;;;;;;5.10;4.63;;;24.70;99.90;;;;;;4978737;28;20207;-79
2021/08/11 10:22:14;;;;;;;4.77;4.37;;;24.80;99.90;;;;;;4979693;28;20231;-78
2021/08/11 10:24:41;;;;;;;4.60;4.20;;;25.00;99.90;;;;;;4984293;28;20203;-79
2021/08/11 10:27:08;;;;;;;4.33;3.93;;;25.20;99.90;;;;;;4988157;28;20598;-78
2021/08/11 10:29:36;;;;;;;4.70;4.20;;;25.20;99.90;;;;;;4984223;28;20196;-78
2021/08/11 10:32:02;;;;;;;4.57;4.17;;;25.30;99.90;;;;;;4979598;28;20549;-79
2021/08/11 10:34:30;;;;;;;6.70;4.57;;;25.30;99.90;;;;;;4977514;28;20647;-77
2021/08/11 10:37:11;;;;;;;4.17;3.60;;;25.40;99.90;;;;;;4977167;28;20176;-78
2021/08/11 10:39:39;;;;;;;6.73;4.47;;;25.50;99.90;;;;;;4986390;28;20218;-76
2021/08/11 10:42:16;;;;;;;4.73;4.20;;;25.70;99.90;;;;;;4991644;28;20179;-79
2021/08/11 10:44:44;;;;;;;4.87;4.40;;;25.80;99.90;;;;;;4978609;28;20564;-78
2021/08/11 10:47:13;;;;;;;6.77;4.00;;;25.90;99.90;;;;;;4977986;28;20188;-77
2021/08/11 10:49:56;;;;;;;5.30;3.90;;;25.80;99.90;;;;;;4986939;28;20553;-80
2021/08/11 10:52:23;;;;;;;4.40;3.50;;;26.00;99.90;;;;;;4994914;28;20175;-80
2021/08/11 10:54:49;;;;;;;6.27;4.10;;;26.00;99.90;;;;;;4979405;28;20180;-80
2021/08/11 10:57:38;;;;;;;4.97;4.00;;;26.10;99.90;;;;;;4976969;28;20176;-79
2021/08/11 11:00:08;;;;;;;5.60;4.30;;;26.40;99.90;;;;;;4980098;28;20267;-80
2021/08/11 11:02:37;;;;;;;4.20;3.80;;;26.50;99.90;;;;;;4982959;28;20293;-81
2021/08/11 11:05:04;;;;;;;4.73;4.33;;;26.60;99.90;;;;;;4982404;28;20184;-80
2021/08/11 11:07:30;;;;;;;4.40;3.97;;;26.50;99.90;;;;;;4982454;28;20600;-80
2021/08/11 11:10:25;;;;;;;5.47;4.33;;;26.40;99.90;;;;;;4990357;28;20175;-80
2021/08/11 11:12:51;;;;;;;4.63;4.17;;;26.40;99.90;;;;;;4984939;28;20204;-80
2021/08/11 11:15:40;;;;;;;4.70;4.40;;;26.50;99.90;;;;;;4993052;28;20175;-79
2021/08/11 11:18:18;;;;;;;5.07;4.57;;;26.80;99.90;;;;;;4984922;28;20203;-80
2021/08/11 11:20:43;;;;;;;5.23;4.17;;;26.80;99.90;;;;;;4981514;28;20191;-81
2021/08/11 11:23:09;;;;;;;5.10;3.80;;;26.80;99.90;;;;;;4983122;28;20606;-80
2021/08/11 11:26:15;;;;;;;6.13;4.87;;;26.90;99.90;;;;;;4983308;28;20556;-79
2021/08/11 11:29:06;;;;;;;6.23;5.43;;;27.10;99.90;;;;;;4905487;29;20257;-80
2021/08/11 11:31:38;;;;;;;5.70;5.30;;;27.20;99.90;;;;;;4924749;29;20178;-81
2021/08/11 11:34:24;;;;;;;5.57;4.97;;;27.30;99.90;;;;;;4973719;28;20787;-79
2021/08/11 11:36:56;;;;;;;8.73;6.77;;;27.50;99.90;;;;;;4991053;28;20192;-80
2021/08/11 11:39:28;;;;;;;6.23;5.70;;;27.60;99.90;;;;;;4989991;28;20310;-80
2021/08/11 11:42:08;;;;;;;6.50;6.00;;;27.60;99.90;;;;;;4987888;28;20181;-80
2021/08/11 11:44:50;;;;;;;5.33;4.93;;;27.70;99.90;;;;;;4990800;28;20172;-79
2021/08/11 11:47:37;;;;;;;6.07;5.57;;;27.70;99.90;;;;;;4985104;28;20203;-80
2021/08/11 11:50:22;;;;;;;7.60;7.00;;;27.70;99.90;;;;;;4980100;28;20737;-81
2021/08/11 11:52:48;;;;;;;8.93;8.03;;;27.80;99.90;;;;;;4972032;28;20172;-80
2021/08/11 11:55:30;;;;;;;8.90;8.00;;;28.10;99.90;;;;;;4978176;28;20185;-79
2021/08/11 11:58:02;;;;;;;6.87;6.30;;;28.20;99.90;;;;;;4990292;28;20208;-81
2021/08/11 12:00:29;;;;;;;7.37;6.77;;;;;;;;;;4973402;28;20185;-80
2021/08/11 12:02:55;;;;;;;7.80;7.07;;;28.40;99.90;;;;;;4977747;28;20181;-81
2021/08/11 12:05:22;;;;;;;8.50;7.60;;;28.50;99.90;;;;;;4980648;28;20196;-81
2021/08/11 12:07:48;;;;;;;8.20;7.60;;;28.50;99.90;;;;;;4976602;28;20687;-81
2021/08/11 12:10:31;;;;;;;8.37;7.63;;;28.30;99.90;;;;;;4980411;28;20276;-80
2021/08/11 12:13:01;;;;;;;8.13;7.50;;;28.30;99.90;;;;;;4972886;28;20212;-78
2021/08/11 12:15:32;;;;;;;11.07;10.13;;;28.40;99.90;;;;;;4974689;28;20165;-81
2021/08/11 12:18:00;;;;;;;7.93;7.23;;;28.60;99.90;;;;;;4973757;28;20204;-81
2021/08/11 12:20:33;;;;;;;7.87;7.20;;;28.70;99.90;;;;;;4974637;28;20176;-80
2021/08/11 12:23:04;;;;;;;8.47;7.87;;;28.80;99.90;;;;;;4971073;28;20179;-80
2021/08/11 12:25:31;;;;;;;8.33;7.53;;;28.80;99.90;;;;;;4976012;28;20196;-80
2021/08/11 12:28:09;;;;;;;7.93;7.33;;;28.80;99.90;;;;;;4974481;28;20209;-80
2021/08/11 12:30:59;;;;;;;7.63;7.03;;;28.90;99.90;;;;;;4989513;28;20682;-81
2021/08/11 12:33:27;;;;;;;8.67;7.80;;;29.10;99.90;;;;;;4974615;28;20188;-81
2021/08/11 12:35:54;;;;;;;8.27;7.53;;;29.20;99.90;;;;;;4974107;28;20221;-81
2021/08/11 12:38:31;;;;;;;7.53;6.83;;;29.20;99.90;;;;;;4965666;28;20240;-81
2021/08/11 12:40:58;;;;;;;8.33;7.63;;;29.10;99.90;;;;;;4991964;28;20188;-81
2021/08/11 12:43:36;;;;;;;8.00;7.30;;;29.20;99.90;;;;;;4973146;28;20185;-81
2021/08/11 12:46:05;;;;;;;8.10;7.50;;;29.20;99.90;;;;;;4977904;28;20231;-80
2021/08/11 12:48:32;;;;;;;8.47;7.77;;;29.20;99.90;;;;;;4960278;28;20213;-80
2021/08/11 12:51:01;;;;;;;9.50;7.87;;;29.20;99.90;;;;;;4976706;28;20188;-80
2021/08/11 12:53:31;;;;;;;7.83;7.10;;;29.20;99.90;;;;;;4968551;28;20200;-81
2021/08/11 12:56:07;;;;;;;8.50;7.70;;;29.20;99.90;;;;;;4979603;28;20357;-82